Weather observations for the past three days for
Kerrville, Kerrville Municipal Airport/Louis Schreiner Field
Imperial (Metric)
Date Time (cdt) Wind (mph) Vis. (mi.) Weather Sky Cond. Temperature (ºF) Relative Humidity Wind Chill (°F) Heat Index (°F) Pressure Precipitation (in)
Air Dwpt 6 hour altimeter (in) sea level (mb) 1 hr 3 hr 6 hr
Max. Min.
05 21:35 Calm 10.00 Fair CLR 83.3 64.6 53% 85 29.93 0.0
05 21:15 Calm 10.00 Fair CLR 83.5 64.6 53% 85 29.92 0.0
05 20:55 E 3 10.00 Fair CLR 85.8 64.4 49% 87 29.91 0.0
05 20:35 E 3 10.00 Fair CLR 86.7 64.4 47% 88 29.91 0.0
05 20:15 SE 3 10.00 Fair CLR 87.8 64 45% 89 29.9 0.0
05 19:55 SE 6 10.00 Fair CLR 89.2 64 43% 91 29.91 0.0
05 19:35 SE 9 10.00 Fair CLR 90.5 64.6 42% 92 29.9 0.0
05 19:15 SE 9 G 16 10.00 Partly Cloudy SCT065 SCT080 91.8 65.1 41% 94 29.9 0.0
05 18:55 SE 8 10.00 Mostly Cloudy SCT065 BKN080 92.8 63.9 95 88.7 38% 94 29.9 0.0
05 18:35 S 10 10.00 Partly Cloudy SCT065 93.4 63.7 37% 95 29.89 0.0
05 18:15 S 7 10.00 Partly Cloudy SCT065 91.9 63.9 39% 93 29.9 0.0
05 17:55 S 9 10.00 Fair CLR 93 64.8 39% 95 29.9 0.0
05 17:35 S 9 10.00 Fair CLR 92.3 66.6 43% 96 29.9 0.0
05 17:15 S 9 G 17 10.00 Fair CLR 90.7 67.8 47% 95 29.9 0.0
05 16:55 S 9 10.00 Fair CLR 91.8 65.7 42% 94 29.9 0.0
05 16:35 S 8 10.00 Fair CLR 91 67.5 46% 95 29.91 0.0
05 16:15 S 17 10.00 Fair CLR 90.7 67.6 47% 94 29.92 0.0
05 15:55 SE 12 10.00 Fair CLR 93.9 67.1 41% 98 29.92 0.0
05 15:35 SE 9 10.00 Partly Cloudy SCT060 SCT070 SCT110 92.5 66.6 43% 96 29.93 0.0
05 15:15 SE 12 10.00 Mostly Cloudy BKN060 BKN070 BKN100 95 67.1 40% 99 29.93 0.0
05 14:55 SE 8 10.00 Partly Cloudy SCT060 SCT070 92.7 65.1 40% 95 29.95 0.0
05 12:55 SE 10 10.00 Partly Cloudy SCT036 89.8 70.2 89.8 73.4 53% 95 30.01 0.0
05 12:35 E 6 10.00 Partly Cloudy SCT032 SCT090 88.7 70.9 56% 95 30.01 0.0
05 12:15 S 5 10.00 Mostly Cloudy SCT030 BKN090 85.3 71.1 63% 91 30.02 0.0
05 11:55 S 8 10.00 Mostly Cloudy BKN030 BKN090 86.4 70.3 59% 91 30.02 0.0
05 11:35 SE 5 10.00 Partly Cloudy SCT026 86 70.5 60% 91 30.02 0.0
05 11:15 S 6 10.00 Partly Cloudy SCT026 SCT090 84.7 70.9 63% 90 30.02 0.0
05 10:55 S 8 10.00 Overcast SCT020 OVC090 83.3 70.9 66% 88 30.02 0.0
05 10:35 S 8 10.00 Overcast BKN020 OVC080 82 71.6 71% 87 30.02 0.0
05 10:15 S 8 10.00 Overcast OVC016 82.2 71.8 71% 87 30.02 0.0
05 09:55 S 5 10.00 Overcast OVC014 81.7 72.7 74% 87 30.02 0.0
05 09:35 SE 6 10.00 Overcast OVC014 79.5 73.4 82% 83 30.02 0.0
05 09:15 SE 7 10.00 Overcast OVC014 77.9 72.7 84% 80 30.01 0.0
05 08:55 SE 3 10.00 Mostly Cloudy BKN012 BKN017 BKN080 76.5 72.7 88% 77 30.01 0.0
05 08:35 SE 3 10.00 Mostly Cloudy SCT010 BKN015 BKN023 74.8 72.3 92% 30 0.0
05 08:15 Calm 10.00 Mostly Cloudy BKN011 BKN015 BKN021 73.6 71.2 92% 30 0.0
05 07:55 Calm 10.00 Overcast OVC013 73.9 71.8 93% 29.99 0.0
05 07:35 E 3 10.00 Overcast OVC013 74.3 71.8 92% 29.98 0.0
05 07:15 SE 3 10.00 Overcast OVC013 74.3 71.8 92% 29.98 0.0
05 06:55 Calm 10.00 Overcast BKN012 OVC019 73.9 71.6 78.1 70.5 92% 29.98 0.0
05 06:35 Calm 10.00 Overcast BKN012 OVC021 71.6 69.1 92% 29.98 0.0
05 06:15 Calm 10.00 Overcast BKN012 OVC019 72.1 69.8 92% 29.98 0.0
05 05:55 Calm 10.00 Mostly Cloudy BKN012 70.9 68.4 92% 29.98 0.0
05 05:35 Calm 10.00 Partly Cloudy SCT012 70.7 68 91% 29.98 0.0
05 05:15 Calm 10.00 Partly Cloudy SCT012 71.6 68.5 90% 29.97 0.0
05 04:55 E 3 10.00 Partly Cloudy SCT014 73.4 69.4 87% 29.97 0.0
05 04:35 E 3 10.00 Mostly Cloudy BKN014 72.7 68.4 86% 29.97 0.0
05 04:15 Calm 10.00 Partly Cloudy SCT014 73 68.2 85% 29.97 0.0
05 03:55 Calm 10.00 Fair CLR 74.3 68.5 82% 29.97 0.0
05 03:35 E 5 10.00 Fair CLR 74.5 68.9 83% 29.97 0.0
05 03:15 SE 6 10.00 Fair CLR 74.8 68.9 82% 29.98 0.0
05 02:55 SE 5 10.00 Fair CLR 74.5 68.2 81% 29.98 0.0
05 02:35 SE 3 10.00 Fair CLR 73.8 67.3 80% 29.98 0.0
05 02:15 SE 6 10.00 Fair CLR 76.1 68 76% 77 29.98 0.0
05 01:55 SE 5 10.00 Fair CLR 75.2 67.8 78% 76 29.98 0.0
05 01:35 SE 3 10.00 Fair CLR 76.6 67.8 74% 78 29.99 0.0
05 01:15 SE 5 10.00 Fair CLR 77.5 67.8 72% 79 29.99 0.0
05 00:55 SE 6 10.00 Fair CLR 77.9 68 86 77 72% 80 29.98 0.0
05 00:35 E 6 10.00 Fair CLR 77.9 68 72% 80 29.99 0.0
05 00:15 E 6 10.00 Fair CLR 77.9 68.2 72% 80 29.99 0.0
04 23:55 E 6 10.00 Fair CLR 78.4 68.2 71% 81 29.99 0.0
04 23:35 E 6 10.00 Fair CLR 77.9 68.2 72% 80 29.99 0.0
04 23:15 SE 5 10.00 Fair CLR 77.7 68 72% 80 29.99 0.0
04 22:55 SE 5 10.00 Fair CLR 77 68.5 75% 79 29.99 0.0
04 22:35 Calm 10.00 Fair CLR 77.4 69.8 78% 79 29.99 0.0
04 22:15 Calm 10.00 Fair CLR 77.5 69.6 77% 79 29.98 0.0
04 21:55 Calm 10.00 Fair CLR 79.2 68.2 69% 82 29.96 0.0
04 21:35 E 3 10.00 Fair CLR 79.7 68.2 68% 82 29.95 0.0
04 21:15 Calm 10.00 Light Rain SCT046 SCT070 SCT120 79.7 70.3 73% 83 29.95 0.0
04 20:55 Calm 10.00 Light Rain SCT070 SCT085 SCT110 80.2 70.3 72% 84 29.95 0.0
04 20:35 Calm 10.00 Light Rain SCT080 SCT100 BKN120 82.4 68.7 63% 86 29.95 0.0
04 20:15 Calm 10.00 Fair CLR 83.5 68.2 60% 87 29.95 0.0
04 19:55 Calm 10.00 Fair CLR 84.2 67.6 58% 87 29.95 0.0
04 19:35 SE 3 10.00 Fair CLR 84.2 68.4 59% 88 29.95 0.0
04 19:15 SE 6 10.00 Fair CLR 84.7 67.8 57% 88 29.95 0.0
04 18:55 SE 6 10.00 Fair CLR 86 68 89.2 84.4 55% 89 29.94 0.0
04 18:35 S 6 10.00 Fair CLR 86.7 64.4 47% 88 29.93 0.0
04 18:15 SE 10 10.00 Fair CLR 86.9 66.2 50% 89 29.93 0.0
04 17:55 S 10 10.00 Fair CLR 87.4 68.5 54% 91 29.93 0.0
04 17:35 SE 6 10.00 Fair CLR 87.3 69.6 56% 92 29.94 0.0
04 17:15 SE 9 10.00 Fair CLR 87.8 70.5 57% 93 29.94 0.0
04 16:55 S 8 10.00 Partly Cloudy SCT075 SCT090 86 70 59% 91 29.95 0.0
04 16:35 SE 9 10.00 Light Drizzle SCT046 SCT055 BKN070 85.1 67.8 56% 88 29.95 0.0
04 16:15 SE 8 10.00 Partly Cloudy SCT048 SCT060 SCT110 85.5 69.3 58% 90 29.97 0.0
04 15:55 SE 8 10.00 Mostly Cloudy BKN110 87.3 70 57% 92 29.98 0.0
04 15:35 SE 7 10.00 Mostly Cloudy BKN110 86 70.2 59% 91 29.98 0.0
04 15:15 SE 7 10.00 Partly Cloudy SCT110 86.5 70.3 59% 92 29.98 0.0
04 14:55 SE 10 10.00 Light Rain SCT028 SCT046 SCT055 85.1 69.8 60% 90 29.99 0.0
04 14:35 SE 10 10.00 Light Rain SCT026 SCT050 BKN070 84.4 70.9 64% 89 30 0.0
04 14:15 SE 7 10.00 Partly Cloudy SCT070 SCT090 SCT110 85.1 69.1 59% 89 29.99 0.0
04 13:55 SE 8 10.00 Partly Cloudy SCT120 85.5 69.3 58% 90 30 0.0
04 13:35 S 9 10.00 Partly Cloudy SCT100 SCT120 85.6 69.1 58% 90 30 0.0
04 13:15 SE 8 10.00 Partly Cloudy SCT100 SCT120 85.5 69.4 59% 90 30 0.0
04 12:55 S 8 10.00 Fair CLR 85.1 69.8 87.6 74.5 60% 90 30.01 0.0
04 12:35 SE 10 10.00 Partly Cloudy SCT034 SCT120 85.5 69.4 59% 90 30.01 0.0
04 12:15 SE 8 10.00 Partly Cloudy SCT031 SCT120 86.9 69.4 56% 91 30.02 0.0
04 11:55 SE 8 10.00 Mostly Cloudy BKN029 85.6 69.6 59% 90 30.02 0.0
04 11:35 S 7 10.00 Mostly Cloudy BKN027 83.7 70.3 64% 88 30.02 0.0
04 11:15 SE 8 10.00 Mostly Cloudy BKN023 BKN028 82 70.9 69% 86 30.02 0.0
04 10:55 S 12 10.00 Light Drizzle SCT018 SCT034 BKN055 81.1 71.2 72% 85 30.02 0.0
04 10:35 SE 12 10.00 Light Rain SCT021 SCT065 BKN100 79.9 71.6 76% 83 30.01 0.0
04 10:15 SE 12 10.00 Mostly Cloudy BKN015 BKN110 79 72 79% 82 30.02 0.0
04 09:55 SE 9 10.00 Mostly Cloudy BKN013 BKN026 BKN120 78.3 72.5 83% 81 30.02 0.0
04 09:35 SE 9 10.00 Overcast BKN011 BKN017 OVC110 77.5 72.5 85% 79 30.01 0.0
04 09:15 SE 9 10.00 Overcast SCT011 OVC022 77 72.5 86% 78 30.01 0.0
04 08:55 SE 8 10.00 Overcast BKN011 OVC022 76.3 72.5 88% 77 30 0.0
04 08:35 SE 7 10.00 Overcast BKN011 OVC022 75.9 72.3 89% 76 29.99 0.0
04 08:15 SE 7 10.00 Overcast SCT014 OVC020 75.4 72.1 90% 75 29.98 0.0
04 07:55 SE 7 10.00 Overcast OVC020 75 71.8 90% 74 29.98 0.0
04 07:35 SE 8 10.00 Partly Cloudy SCT016 74.5 71.6 91% 29.96 0.0
04 07:15 SE 5 10.00 Partly Cloudy SCT110 74.8 71.6 90% 29.96 0.0
04 06:55 SE 5 10.00 Mostly Cloudy BKN110 74.7 71.6 80.2 74.3 90% 29.96 0.0
04 06:35 S 5 10.00 Fair CLR 74.5 71.1 89% 29.96 0.0
04 06:15 SE 5 10.00 Partly Cloudy SCT016 SCT020 75 71.2 88% 74 29.96 0.0
04 05:55 S 6 10.00 Mostly Cloudy SCT016 BKN021 75.4 71.6 88% 75 29.96 0.0
04 05:35 SE 8 10.00 Partly Cloudy SCT018 75.4 71.6 88% 75 29.96 0.0
04 05:15 S 9 10.00 Partly Cloudy SCT015 SCT020 SCT120 75.7 71.6 87% 76 29.96 0.0
04 04:55 S 8 10.00 Mostly Cloudy BKN015 BKN020 76.1 71.6 86% 77 29.95 0.0
04 04:35 S 7 10.00 Overcast OVC017 76.3 71.6 86% 77 29.96 0.0
04 04:15 S 8 10.00 Overcast OVC015 76.6 71.6 84% 78 29.96 0.0
04 03:55 S 7 10.00 Mostly Cloudy BKN015 76.5 71.2 84% 77 29.95 0.0
04 03:35 SE 6 10.00 Partly Cloudy SCT017 76.3 70.9 83% 77 29.96 0.0
04 03:15 SE 8 10.00 Mostly Cloudy BKN017 76.8 70.9 82% 78 29.96 0.0
04 02:55 S 10 10.00 Partly Cloudy SCT019 77.2 70.9 81% 79 29.97 0.0
04 02:35 SE 6 10.00 Partly Cloudy SCT019 77.5 71.1 81% 79 29.98 0.0
04 02:15 S 9 10.00 Mostly Cloudy BKN021 77.9 71.1 80% 80 29.97 0.0
04 01:55 SE 14 10.00 Partly Cloudy SCT021 78.4 71.1 78% 81 29.97 0.0
04 01:35 SE 14 G 18 10.00 Partly Cloudy SCT023 79 70.7 76% 82 29.98 0.0
04 01:15 S 10 10.00 Fair CLR 79.7 69.4 71% 83 29.97 0.0
04 00:55 SE 9 10.00 Fair CLR 80.2 67.3 95.9 80.2 65% 83 29.97 0.0
04 00:35 SE 9 10.00 Fair CLR 80.8 65.7 60% 83 29.96 0.0
04 00:15 SE 12 10.00 Fair CLR 81.7 64.8 57% 83 29.96 0.0
03 23:55 SE 12 10.00 Fair CLR 82.4 66.6 59% 85 29.96 0.0
03 23:35 SE 12 G 16 10.00 Fair CLR 82.6 66.7 59% 85 29.96 0.0
03 23:15 SE 9 10.00 Fair CLR 83.1 66.6 57% 86 29.95 0.0
03 22:55 SE 9 10.00 Fair CLR 83.7 66.4 56% 86 29.96 0.0
03 22:35 SE 14 10.00 Fair CLR 84 66.6 56% 86 29.95 0.0
03 22:15 SE 9 10.00 Fair CLR 84.4 67.5 57% 87 29.94 0.0
03 21:55 SE 12 G 17 10.00 Fair CLR 84.9 68 57% 88 29.93 0.0
03 21:35 E 13 G 24 10.00 Fair CLR 86 67.5 54% 89 29.92 0.0
03 21:15 E 14 G 20 10.00 Fair CLR 88 66.6 49% 91 29.91 0.0
03 20:55 E 8 10.00 Fair CLR 89.1 65.7 46% 91 29.9 0.0
03 20:35 SE 8 10.00 Fair CLR 89.8 65.5 45% 92 29.89 0.0
03 20:15 SE 6 10.00 Fair CLR 90 64.4 43% 92 29.89 0.0
03 19:55 SE 6 10.00 Fair CLR 90.9 64.2 41% 92 29.88 0.0
03 19:35 SE 7 10.00 Fair CLR 93 64.2 39% 95 29.88 0.0
03 19:15 SE 12 10.00 Fair CLR 95.7 63.7 35% 98 29.88 0.0
03 18:55 SE 13 10.00 Fair CLR 95.9 62.8 100.2 92.8 33% 97 29.87 0.0
03 18:35 SE 14 10.00 Fair CLR 95.9 63.5 34% 98 29.87 0.0
03 18:15 SE 13 10.00 Partly Cloudy SCT085 SCT110 95.9 64.4 35% 98 29.87 0.0
03 17:55 SE 13 10.00 Overcast BKN085 OVC100 96.1 64.2 35% 98 29.86 0.0
03 17:35 SE 10 G 16 10.00 Mostly Cloudy BKN085 98.8 63.1 31% 101 29.86 0.0
03 17:15 S 7 10.00 Fair CLR 99.9 62.6 29% 102 29.87 0.0
03 16:55 SE 9 10.00 Fair CLR 99.3 61.9 29% 101 29.87 0.0
03 16:35 S 7 10.00 Fair CLR 98.8 61 29% 100 29.88 0.0
03 16:15 SE 10 10.00 Fair CLR 99.1 61.9 29% 100 29.88 0.0
03 15:55 Calm 10.00 Fair CLR 98.4 61.7 30% 100 29.89 0.0
03 15:35 S 5 10.00 Fair CLR 98.1 62.8 31% 100 29.9 0.0
03 15:15 SE 5 10.00 Fair CLR 97.7 63.7 33% 100 29.9 0.0
03 14:55 Calm 10.00 Fair CLR 97.3 64.4 34% 100 29.91 0.0
03 14:35 S 8 10.00 Fair CLR 98.1 65.1 34% 101 29.92 0.0
03 14:15 S 7 10.00 Fair CLR 95.7 65.1 37% 98 29.93 0.0
03 13:55 S 9 10.00 Fair CLR 95.5 65.5 37% 99 29.95 0.0
03 13:35 SE 10 G 18 10.00 Fair CLR 95.5 65.8 38% 99 29.95 0.0
03 13:15 S 12 10.00 Fair CLR 94.1 65.5 39% 97 29.96 0.0
03 12:55 S 6 10.00 Fair CLR 93.2 68 93.2 76.3 44% 98 29.98 0.0
03 12:35 S 9 10.00 Fair CLR 92.7 68.2 45% 97 29.99 0.0
03 12:15 S 9 10.00 Fair CLR 90.5 66.9 46% 94 29.99 0.0
03 11:55 SW 9 10.00 Fair CLR 89.1 68.5 51% 93 29.99 0.0
03 11:35 S 7 10.00 Fair CLR 87.6 70.2 56% 93 30 0.0
03 11:15 S 8 10.00 Fair CLR 86.5 70.9 60% 92 30 0.0
03 10:55 S 10 10.00 Fair CLR 85.3 71.2 63% 91 30 0.0
03 10:35 S 9 10.00 Fair CLR 84.2 72.5 68% 90 29.99 0.0
03 10:15 S 10 10.00 Partly Cloudy SCT015 82.6 72.7 72% 88 30 0.0
03 09:55 S 10 10.00 Mostly Cloudy BKN013 80.8 72.5 76% 85 30 0.0
03 09:35 S 9 10.00 Mostly Cloudy BKN013 79.9 73 80% 84 30 0.0
03 09:15 S 7 10.00 Overcast OVC013 77.9 72.7 84% 80 30 0.0
03 08:55 S 9 10.00 Overcast OVC011 77.4 73 87% 79 30 0.0
03 08:35 SE 7 10.00 Overcast OVC011 77 73.4 89% 78 30 0.0
03 08:15 S 6 10.00 Overcast OVC011 77 73.4 89% 78 29.99 0.0
03 07:55 SE 8 10.00 Overcast OVC011 76.5 73 89% 77 29.99 0.0
03 07:35 S 3 10.00 Overcast OVC011 76.5 72.9 89% 77 29.98 0.0
03 07:15 S 5 10.00 Mostly Cloudy BKN013 76.3 72.5 88% 77 29.98 0.0
03 06:55 S 6 10.00 Mostly Cloudy BKN013 76.5 72.5 81.9 76.1 88% 77 29.98 0.0
03 06:35 S 8 10.00 Overcast OVC013 76.6 72.5 87% 78 29.98 0.0
03 06:15 S 8 10.00 Overcast OVC013 76.6 72.7 88% 78 29.98 0.0
03 05:55 S 6 10.00 Overcast OVC013 76.5 72.5 88% 77 29.97 0.0
03 05:35 SE 8 10.00 Mostly Cloudy BKN013 76.6 72.5 87% 78 29.97 0.0
03 05:15 S 6 10.00 Fair CLR 76.3 71.6 86% 77 29.97 0.0
03 04:55 S 9 10.00 Fair CLR 76.6 71.6 84% 78 29.97 0.0
03 04:35 SE 7 10.00 Fair CLR 76.6 70.9 82% 78 29.98 0.0
03 04:15 SE 6 10.00 Fair CLR 77.9 71.1 80% 80 29.98 0.0
03 03:55 S 3 10.00 Fair CLR 78.4 70.9 78% 81 29.97 0.0
03 03:35 Calm 10.00 Fair CLR 79.2 70.3 74% 82 29.98 0.0
03 03:15 Calm 10.00 Fair CLR 79.7 70 72% 83 29.98 0.0
03 02:55 SE 7 10.00 Fair CLR 79.9 71.1 75% 83 29.98 0.0
03 02:35 S 5 10.00 Fair CLR 79.9 71.2 75% 83 29.98 0.0
03 02:15 E 6 10.00 Fair CLR 80.4 70.7 72% 84 29.99 0.0
03 01:55 SE 5 10.00 Fair CLR 80.6 70.3 71% 84 29.99 0.0
03 01:35 SE 5 10.00 Fair CLR 81.3 69.8 68% 85 29.98 0.0
03 01:15 SE 5 10.00 Fair CLR 81.7 69.4 67% 85 29.98 0.0
03 00:55 S 7 10.00 Fair CLR 81.5 67.5 96.8 77.2 63% 84 29.98 0.0
03 00:35 E 3 10.00 Fair CLR 81.5 65.3 58% 83 29.98 0.0
03 00:15 SE 6 10.00 Fair CLR 80.6 63.7 56% 82 29.98 0.0
02 23:55 SE 3 10.00 Fair CLR 79 64.6 61% 81 29.98 0.0
02 23:35 Calm 10.00 Fair CLR 78.4 65.5 65% 80 29.96 0.0
02 23:15 Calm 10.00 Fair CLR 80.2 64.9 60% 82 29.96 0.0
02 22:55 Calm 10.00 Fair CLR 82.4 63 52% 84 29.96 0.0
02 22:35 Calm 10.00 Fair CLR 84.2 61.7 47% 85 29.95 0.0
02 22:15 E 5 10.00 Fair CLR 85.3 61.7 45% 86 29.95 0.0
02 21:55 E 5 10.00 Fair CLR 86 61.9 44% 86 29.94 0.0
Date Time (cdt) Wind (mph) Vis. (mi.) Weather Sky Cond. Air Dwpt Max. Min. Relative Humidity Wind Chill (°F) Heat Index (°F) altimeter (in) sea level (mb) 1 hr 3 hr 6 hr
6 hour
Temperature (ºF) Pressure Precipitation (in)